Terminal Aerodrome Forecast
Issued by NWS

Home | Current Version | Previous Version | Text Only | Print | Product List | Glossary Off
Versions: 1 2 3 4 5 6 7 8 9 10 11 12 13 14 15 16 17 18 19 20 21

000
FTUS43 KABR 041001 AAB
TAFPIR
TAF AMD
KPIR 041001Z 0410/0506 17008KT 6SM -SHRA VCTS FEW080 BKN120CB
      OVC200
      TEMPO 0410/0412 VRB15G25KT 3SM TSRA BR SCT050 BKN070CB OVC100
     FM041200 14007KT P6SM FEW060 BKN150
     FM050000 10009KT P6SM SCT250=

USA.gov is the U.S. government's official web portal to all federal, state and local government web resources and services.